Time;durP1;ratioP1;P1;durP2;ratioP2;P2;SDS_P1;SDS_P2;PMS_P1;PMS_P2;Temp;Humidity;BMP_temperature;BMP_pressure;BME280_temperature;BME280_humidity;BME280_pressure;Samples;Min_cycle;Max_cycle;Signal;HPM_P1;HPM_P2
2022/08/01 00:01:35;;;;;;;;;1.50;1.50;;;;;-146.44;100.00;58906.56;5074244;28;46958;-70
2022/08/01 00:04:01;;;;;;;;;2.00;1.00;;;;;-146.44;100.00;58906.56;5078853;27;45455;-70
2022/08/01 00:06:27;;;;;;;;;2.00;2.00;;;;;-146.44;100.00;58906.56;5092356;27;45515;-73
2022/08/01 00:08:52;;;;;;;;;1.50;1.50;;;;;-146.44;100.00;58906.56;5096328;27;45354;-74
2022/08/01 00:11:17;;;;;;;;;3.75;2.75;;;;;-146.44;100.00;58906.56;5078802;28;45412;-72
2022/08/01 00:13:43;;;;;;;;;2.00;2.00;;;;;-146.44;100.00;58906.56;5078757;28;45426;-71
2022/08/01 00:16:08;;;;;;;;;1.50;1.50;;;;;-146.44;100.00;58906.56;5089448;27;45368;-71
2022/08/01 00:18:35;;;;;;;;;1.00;1.00;;;;;-146.44;100.00;58906.56;5060513;28;45625;-70
2022/08/01 00:21:00;;;;;;;;;2.00;2.00;;;;;-146.44;100.00;58906.56;5078755;28;45421;-70
2022/08/01 00:23:26;;;;;;;;;1.75;1.75;;;;;-146.44;100.00;58906.56;5078849;28;45415;-71
2022/08/01 00:25:51;;;;;;;;;1.00;1.00;;;;;-146.44;100.00;58906.56;5078972;28;45347;-70
2022/08/01 00:28:16;;;;;;;;;1.00;1.00;;;;;-146.44;100.00;58906.56;5078666;28;45421;-72
2022/08/01 00:30:42;;;;;;;;;1.25;1.25;;;;;-146.44;100.00;58906.56;5077957;27;46226;-71
2022/08/01 00:33:07;;;;;;;;;1.00;1.00;;;;;-146.44;100.00;58906.56;5083978;27;45498;-70
2022/08/01 00:35:33;;;;;;;;;0.00;0.00;;;;;-146.44;100.00;58906.56;5098232;27;45587;-69
2022/08/01 00:37:58;;;;;;;;;1.25;0.25;;;;;-146.44;100.00;58906.56;5080785;27;45462;-70
2022/08/01 00:40:23;;;;;;;;;0.25;0.25;;;;;-146.44;100.00;58906.56;5098951;27;45557;-73
2022/08/01 00:42:49;;;;;;;;;1.00;1.00;;;;;-146.44;100.00;58906.56;5099208;27;45548;-70
2022/08/01 00:45:14;;;;;;;;;1.00;1.00;;;;;-146.44;100.00;58906.56;5078486;28;45436;-71
2022/08/01 00:47:39;;;;;;;;;0.00;0.00;;;;;-146.44;100.00;58906.56;5078430;28;45432;-70
2022/08/01 00:50:05;;;;;;;;;1.25;1.25;;;;;-146.44;100.00;58906.56;5065182;27;47989;-73
2022/08/01 00:52:32;;;;;;;;;0.00;0.00;;;;;-146.44;100.00;58906.56;5098663;27;45458;-71
2022/08/01 00:54:57;;;;;;;;;1.20;1.00;;;;;-146.44;100.00;58906.56;5091029;27;45380;-72
2022/08/01 00:57:23;;;;;;;;;0.50;0.50;;;;;-146.44;100.00;58906.56;5095658;27;45616;-69
2022/08/01 00:59:48;;;;;;;;;1.00;1.00;;;;;-146.44;100.00;58906.56;5076958;28;45463;-72
2022/08/01 01:02:14;;;;;;;;;1.00;1.00;;;;;-146.44;100.00;58906.56;5077995;28;45512;-69
2022/08/01 01:04:39;;;;;;;;;1.00;1.00;;;;;-146.44;100.00;58906.56;5087447;27;45512;-74
2022/08/01 01:07:22;;;;;;;;;1.50;1.50;;;;;-146.44;100.00;58906.56;5093091;27;45532;-70
2022/08/01 01:10:11;;;;;;;;;0.50;0.50;;;;;-146.44;100.00;58906.56;5078182;28;45423;-74
2022/08/01 01:12:46;;;;;;;;;1.00;1.00;;;;;-146.44;100.00;58906.56;5077775;28;45554;-71
2022/08/01 01:15:39;;;;;;;;;1.50;1.50;;;;;-146.44;100.00;58906.56;5078302;28;45431;-72
2022/08/01 01:18:12;;;;;;;;;1.25;1.00;;;;;-146.44;100.00;58906.56;5077127;28;45413;-70
2022/08/01 01:20:44;;;;;;;;;1.00;1.00;;;;;-146.44;100.00;58906.56;5077977;28;45443;-74
2022/08/01 01:23:09;;;;;;;;;0.60;0.60;;;;;-146.44;100.00;58906.56;5078038;28;45474;-71
2022/08/01 01:25:51;;;;;;;;;0.00;0.00;;;;;-146.44;100.00;58906.56;5074069;28;45414;-71
2022/08/01 01:28:53;;;;;;;;;1.00;1.00;;;;;-146.44;100.00;58906.56;5078011;28;45436;-70
2022/08/01 01:31:22;;;;;;;;;1.25;0.75;;;;;-146.44;100.00;58906.56;5077496;28;46139;-71
2022/08/01 01:33:49;;;;;;;;;0.80;0.80;;;;;-146.44;100.00;58906.56;5077687;28;45430;-71
2022/08/01 01:36:18;;;;;;;;;1.00;1.00;;;;;-146.44;100.00;58906.56;5076170;28;45442;-69
2022/08/01 01:38:45;;;;;;;;;0.00;0.00;;;;;-146.44;100.00;58906.56;5077654;28;45386;-72
2022/08/01 01:41:14;;;;;;;;;1.00;1.00;;;;;-146.44;100.00;58906.56;5078476;27;45527;-73
2022/08/01 01:43:40;;;;;;;;;1.00;1.00;;;;;-146.44;100.00;58906.56;5075566;28;45465;-73
2022/08/01 01:46:07;;;;;;;;;3.00;2.00;;;;;-146.44;100.00;58906.56;5096894;27;45434;-74
2022/08/01 01:48:34;;;;;;;;;1.75;1.25;;;;;-146.44;100.00;58906.56;5091608;27;45481;-70
2022/08/01 01:51:01;;;;;;;;;1.25;1.00;;;;;-146.44;100.00;58906.56;5077261;28;45436;-74
2022/08/01 01:53:28;;;;;;;;;1.20;1.20;;;;;-146.44;100.00;58906.56;5077550;28;45465;-73
2022/08/01 01:55:56;;;;;;;;;1.00;1.00;;;;;-146.44;100.00;58906.56;5077746;27;45356;-73
2022/08/01 01:58:24;;;;;;;;;2.00;2.00;;;;;-146.44;100.00;58906.56;5085029;27;45430;-72
2022/08/01 02:00:52;;;;;;;;;1.00;1.00;;;;;-146.44;100.00;58906.56;5090242;27;45404;-68
2022/08/01 02:03:20;;;;;;;;;1.00;1.00;;;;;-146.44;100.00;58906.56;5076660;27;45432;-73
2022/08/01 02:05:47;;;;;;;;;2.00;1.00;;;;;-146.44;100.00;58906.56;5077626;28;45477;-71
2022/08/01 02:08:16;;;;;;;;;1.00;1.00;;;;;-146.44;100.00;58906.56;5077372;28;45505;-71
2022/08/01 02:11:17;;;;;;;;;1.00;1.00;;;;;-146.44;100.00;58906.56;5077014;27;45382;-71
2022/08/01 02:13:32;;;;;;;;;2.00;1.00;;;;;-146.44;100.00;58906.56;5076670;28;45476;-69
2022/08/01 02:15:58;;;;;;;;;2.00;2.00;;;;;-146.44;100.00;58906.56;5077619;27;45350;-74
2022/08/01 02:18:23;;;;;;;;;2.00;2.00;;;;;-146.44;100.00;58906.56;5077439;28;45589;-73
2022/08/01 02:20:52;;;;;;;;;1.25;1.25;;;;;-146.44;100.00;58906.56;5076930;28;46019;-70
2022/08/01 02:23:18;;;;;;;;;1.80;1.80;;;;;-146.44;100.00;58906.56;5076945;28;45501;-72
2022/08/01 02:25:50;;;;;;;;;1.25;1.25;;;;;-146.44;100.00;58906.56;5076753;27;45432;-69
2022/08/01 02:28:17;;;;;;;;;1.00;1.00;;;;;-146.44;100.00;58906.56;5075749;28;45441;-70
2022/08/01 02:30:47;;;;;;;;;1.00;1.00;;;;;-146.44;100.00;58906.56;5076756;28;45570;-73
2022/08/01 02:33:20;;;;;;;;;1.20;1.00;;;;;-146.44;100.00;58906.56;5077229;27;45455;-69
2022/08/01 02:35:50;;;;;;;;;1.40;1.40;;;;;-146.44;100.00;58906.56;5076896;27;45422;-69
2022/08/01 02:38:17;;;;;;;;;1.00;1.00;;;;;-146.44;100.00;58906.56;5091570;27;45388;-69
2022/08/01 02:40:47;;;;;;;;;0.00;0.00;;;;;-146.44;100.00;58906.56;5096916;27;45651;-73
2022/08/01 02:43:18;;;;;;;;;1.00;1.00;;;;;-146.44;100.00;58906.56;5097760;27;45498;-73
2022/08/01 02:45:47;;;;;;;;;0.80;0.80;;;;;-146.44;100.00;58906.56;5097262;27;45456;-70
2022/08/01 02:48:15;;;;;;;;;2.50;2.50;;;;;-146.44;100.00;58906.56;5097292;27;45406;-71
2022/08/01 02:50:43;;;;;;;;;1.00;1.00;;;;;-146.44;100.00;58906.56;5095867;27;45348;-71
2022/08/01 02:53:12;;;;;;;;;0.00;0.00;;;;;-146.44;100.00;58906.56;5096706;27;45438;-71
2022/08/01 02:55:42;;;;;;;;;1.75;1.75;;;;;-146.44;100.00;58906.56;5097009;27;45429;-73
2022/08/01 02:58:10;;;;;;;;;1.25;1.25;;;;;-146.44;100.00;58906.56;5096909;27;45462;-70
2022/08/01 03:00:36;;;;;;;;;2.00;1.25;;;;;-146.44;100.00;58906.56;5095213;27;45432;-69
2022/08/01 03:03:04;;;;;;;;;1.00;1.00;;;;;-146.44;100.00;58906.56;5076459;28;45456;-71
2022/08/01 03:05:32;;;;;;;;;1.00;1.00;;;;;-146.44;100.00;58906.56;5076785;27;45411;-72
2022/08/01 03:07:59;;;;;;;;;0.75;0.75;;;;;-146.44;100.00;58906.56;5075009;28;45497;-73
2022/08/01 03:10:27;;;;;;;;;1.00;1.00;;;;;-146.44;100.00;58906.56;5074785;28;46084;-71
2022/08/01 03:12:55;;;;;;;;;3.50;1.00;;;;;-146.44;100.00;58906.56;5075927;27;45523;-73
2022/08/01 03:15:22;;;;;;;;;1.00;1.00;;;;;-146.44;100.00;58906.56;5075895;28;45464;-73
2022/08/01 03:17:50;;;;;;;;;1.00;1.00;;;;;-146.44;100.00;58906.56;5076083;28;45640;-73
2022/08/01 03:20:17;;;;;;;;;1.00;1.00;;;;;-146.44;100.00;58906.56;5075878;28;46376;-69
2022/08/01 03:22:45;;;;;;;;;1.20;1.20;;;;;-146.44;100.00;58906.56;5078015;27;45375;-74
2022/08/01 03:25:13;;;;;;;;;1.20;0.60;;;;;-146.44;100.00;58906.56;5095585;27;45368;-68
2022/08/01 03:27:41;;;;;;;;;1.25;1.25;;;;;-146.44;100.00;58906.56;5096429;27;45442;-73
2022/08/01 03:30:07;;;;;;;;;1.00;1.00;;;;;-146.44;100.00;58906.56;5096363;27;45465;-73
2022/08/01 03:32:33;;;;;;;;;1.00;1.00;;;;;-146.44;100.00;58906.56;5096817;27;45497;-72
2022/08/01 03:34:58;;;;;;;;;1.00;1.00;;;;;-146.44;100.00;58906.56;5096260;27;45428;-72
2022/08/01 03:37:28;;;;;;;;;2.00;2.00;;;;;-146.44;100.00;58906.56;5095182;27;45390;-73
2022/08/01 03:40:13;;;;;;;;;1.75;1.00;;;;;-146.44;100.00;58906.56;5092220;27;46124;-73
2022/08/01 03:42:45;;;;;;;;;2.00;1.00;;;;;-146.44;100.00;58906.56;5087192;27;45415;-73
2022/08/01 03:45:18;;;;;;;;;2.00;2.00;;;;;-146.44;100.00;58906.56;5086527;27;45564;-71
2022/08/01 03:47:48;;;;;;;;;1.00;1.00;;;;;-146.44;100.00;58906.56;5079216;27;45463;-72
2022/08/01 03:50:17;;;;;;;;;1.25;1.25;;;;;-146.44;100.00;58906.56;5079222;28;45526;-74
2022/08/01 03:52:46;;;;;;;;;1.00;1.00;;;;;-146.44;100.00;58906.56;5079248;28;45450;-71
2022/08/01 03:55:13;;;;;;;;;3.25;1.00;;;;;-146.44;100.00;58906.56;5079350;28;45415;-74
2022/08/01 03:57:40;;;;;;;;;1.00;1.00;;;;;-146.44;100.00;58906.56;5079395;27;45470;-74
2022/08/01 04:00:08;;;;;;;;;1.00;1.00;;;;;-146.44;100.00;58906.56;5079096;28;46053;-72
2022/08/01 04:02:34;;;;;;;;;2.00;2.00;;;;;-146.44;100.00;58906.56;5079835;27;45355;-71
2022/08/01 04:05:00;;;;;;;;;1.00;1.00;;;;;-146.44;100.00;58906.56;5077425;28;45408;-71
2022/08/01 04:07:31;;;;;;;;;3.00;1.50;;;;;-146.44;100.00;58906.56;5077815;28;45601;-70
2022/08/01 04:09:57;;;;;;;;;1.00;1.00;;;;;-146.44;100.00;58906.56;5078660;28;45979;-70
2022/08/01 04:12:23;;;;;;;;;1.00;1.00;;;;;-146.44;100.00;58906.56;5078692;27;45573;-70
2022/08/01 04:14:49;;;;;;;;;1.00;1.00;;;;;-146.44;100.00;58906.56;5076478;27;45505;-70
2022/08/01 04:17:15;;;;;;;;;2.00;2.00;;;;;-146.44;100.00;58906.56;5078730;28;45706;-74
2022/08/01 04:19:41;;;;;;;;;2.00;2.00;;;;;-146.44;100.00;58906.56;5078350;28;46999;-70
2022/08/01 04:22:08;;;;;;;;;1.00;1.00;;;;;-146.44;100.00;58906.56;5077136;28;45394;-72
2022/08/01 04:24:36;;;;;;;;;1.00;1.00;;;;;-146.44;100.00;58906.56;5078689;28;45434;-72
2022/08/01 04:27:04;;;;;;;;;1.75;1.75;;;;;-146.44;100.00;58906.56;5087514;27;45466;-74
2022/08/01 04:29:32;;;;;;;;;0.00;0.00;;;;;-146.44;100.00;58906.56;5098701;27;45454;-69
2022/08/01 04:32:00;;;;;;;;;0.00;0.00;;;;;-146.44;100.00;58906.56;5085918;27;45448;-70
2022/08/01 04:34:30;;;;;;;;;0.20;0.20;;;;;-146.44;100.00;58906.56;5078445;27;45442;-72
2022/08/01 04:36:57;;;;;;;;;1.50;1.00;;;;;-146.44;100.00;58906.56;5078198;27;45485;-71
2022/08/01 04:39:30;;;;;;;;;2.25;2.25;;;;;-146.44;100.00;58906.56;5078393;28;46362;-70
2022/08/01 04:41:58;;;;;;;;;2.00;1.00;;;;;-146.44;100.00;58906.56;5078461;28;45411;-71
2022/08/01 04:44:24;;;;;;;;;1.00;1.00;;;;;-146.44;100.00;58906.56;5078887;28;45439;-72
2022/08/01 04:46:50;;;;;;;;;1.00;1.00;;;;;-146.44;100.00;58906.56;5060207;28;45661;-70
2022/08/01 04:49:16;;;;;;;;;1.00;1.00;;;;;-146.44;100.00;58906.56;5078832;27;46202;-72
2022/08/01 04:51:57;;;;;;;;;1.25;1.25;;;;;-146.44;100.00;58906.56;5059435;27;45469;-73
2022/08/01 04:54:23;;;;;;;;;2.00;2.00;;;;;-146.44;100.00;58906.56;5078174;28;45461;-71
2022/08/01 04:56:48;;;;;;;;;1.75;1.75;;;;;-146.44;100.00;58906.56;5078319;28;45408;-69
2022/08/01 05:01:57;;;;;;;;;1.00;1.00;;;;;-146.44;100.00;58906.56;5077580;27;45679;-71
2022/08/01 05:04:23;;;;;;;;;2.00;2.00;;;;;-146.44;100.00;58906.56;5077926;28;45351;-73
2022/08/01 05:06:48;;;;;;;;;1.75;1.75;;;;;-146.44;100.00;58906.56;5078161;27;45625;-70
2022/08/01 05:09:14;;;;;;;;;2.25;2.00;;;;;-146.44;100.00;58906.56;5075759;28;48376;-73
2022/08/01 05:11:39;;;;;;;;;2.00;2.00;;;;;-146.44;100.00;58906.56;5077718;28;45485;-71
2022/08/01 05:14:04;;;;;;;;;2.00;2.00;;;;;-146.44;100.00;58906.56;5077755;28;45534;-73
2022/08/01 05:16:30;;;;;;;;;2.00;2.00;;;;;-146.44;100.00;58906.56;5077878;28;45602;-69
2022/08/01 05:18:55;;;;;;;;;1.25;1.25;;;;;-146.44;100.00;58906.56;5077836;28;45478;-73
2022/08/01 05:21:21;;;;;;;;;0.75;0.75;;;;;-146.44;100.00;58906.56;5077446;28;46361;-73
2022/08/01 05:23:46;;;;;;;;;1.00;1.00;;;;;-146.44;100.00;58906.56;5084998;27;46195;-72
2022/08/01 05:26:13;;;;;;;;;1.00;1.00;;;;;-146.44;100.00;58906.56;5081415;27;46300;-73
2022/08/01 05:28:38;;;;;;;;;1.00;1.00;;;;;-146.44;100.00;58906.56;5098060;27;45432;-72
2022/08/01 05:31:04;;;;;;;;;2.00;2.00;;;;;-146.44;100.00;58906.56;5090069;27;45420;-72
2022/08/01 05:33:29;;;;;;;;;1.25;1.25;;;;;-146.44;100.00;58906.56;5077639;28;45927;-70
2022/08/01 05:35:55;;;;;;;;;2.75;2.00;;;;;-146.44;100.00;58906.56;5077666;28;45529;-71
2022/08/01 05:38:20;;;;;;;;;1.00;1.00;;;;;-146.44;100.00;58906.56;5077484;28;46191;-71
2022/08/01 05:40:45;;;;;;;;;2.00;2.00;;;;;-146.44;100.00;58906.56;5083324;27;45505;-71
2022/08/01 05:43:11;;;;;;;;;1.00;1.00;;;;;-146.44;100.00;58906.56;5094559;27;45294;-70
2022/08/01 05:45:36;;;;;;;;;1.25;1.00;;;;;-146.44;100.00;58906.56;5096911;27;45524;-70
2022/08/01 05:48:02;;;;;;;;;1.00;1.00;;;;;-146.44;100.00;58906.56;5081870;27;45449;-69
2022/08/01 05:50:27;;;;;;;;;3.25;3.25;;;;;-146.44;100.00;58906.56;5058655;27;45344;-69
2022/08/01 05:52:52;;;;;;;;;2.00;2.00;;;;;-146.44;100.00;58906.56;5077397;27;45923;-69
2022/08/01 05:55:18;;;;;;;;;1.25;1.25;;;;;-146.44;100.00;58906.56;5080541;27;45578;-69
2022/08/01 05:57:43;;;;;;;;;1.00;1.00;;;;;-146.44;100.00;58906.56;5095734;27;45419;-70
2022/08/01 06:00:09;;;;;;;;;3.00;3.00;;;;;-146.44;100.00;58906.56;5084581;27;45441;-70
2022/08/01 06:02:40;;;;;;;;;1.50;1.00;;;;;-146.44;100.00;58906.56;5091787;27;45404;-73
2022/08/01 06:05:05;;;;;;;;;4.00;2.50;;;;;-146.44;100.00;58906.56;5084870;27;45488;-69
2022/08/01 06:07:31;;;;;;;;;2.00;2.00;;;;;-146.44;100.00;58906.56;5078710;27;45497;-67
2022/08/01 06:09:56;;;;;;;;;4.00;3.00;;;;;-146.44;100.00;58906.56;5096989;27;45418;-66
2022/08/01 06:12:21;;;;;;;;;3.25;3.25;;;;;-146.44;100.00;58906.56;5080874;27;49315;-71
2022/08/01 06:14:47;;;;;;;;;3.00;3.00;;;;;-146.44;100.00;58906.56;5096455;27;45558;-72
2022/08/01 06:17:12;;;;;;;;;1.50;1.50;;;;;-146.44;100.00;58906.56;5096809;27;46089;-68
2022/08/01 06:19:37;;;;;;;;;5.00;3.00;;;;;-146.44;100.00;58906.56;5097048;27;45490;-70
2022/08/01 06:22:02;;;;;;;;;2.00;2.00;;;;;-146.44;100.00;58906.56;5096785;27;45478;-68
2022/08/01 06:24:28;;;;;;;;;2.25;1.75;;;;;-146.44;100.00;58906.56;5110600;27;45441;-72
2022/08/01 06:26:53;;;;;;;;;1.00;1.00;;;;;-146.44;100.00;58906.56;5117187;27;45434;-70
2022/08/01 06:29:19;;;;;;;;;3.25;3.25;;;;;-146.44;100.00;58906.56;5087266;27;45479;-69
2022/08/01 06:31:44;;;;;;;;;3.50;3.00;;;;;-146.44;100.00;58906.56;5076619;27;45467;-68
2022/08/01 06:34:09;;;;;;;;;2.75;2.75;;;;;-146.44;100.00;58906.56;5057387;28;45438;-66
2022/08/01 06:36:35;;;;;;;;;3.00;2.00;;;;;-146.44;100.00;58906.56;5076062;27;46055;-67
2022/08/01 06:39:00;;;;;;;;;1.50;1.50;;;;;-146.44;100.00;58906.56;5057287;28;45520;-69
2022/08/01 06:41:25;;;;;;;;;5.25;3.25;;;;;-146.44;100.00;58906.56;5085274;27;45462;-65
2022/08/01 06:43:51;;;;;;;;;4.00;4.00;;;;;-146.44;100.00;58906.56;5092840;27;45498;-68
2022/08/01 06:46:16;;;;;;;;;2.25;2.25;;;;;-146.44;100.00;58906.56;5077180;27;49945;-71
2022/08/01 06:48:42;;;;;;;;;3.00;2.00;;;;;-146.44;100.00;58906.56;5085742;27;45582;-64
2022/08/01 06:51:07;;;;;;;;;2.50;2.00;;;;;-146.44;100.00;58906.56;5096390;27;45412;-63
2022/08/01 06:53:34;;;;;;;;;2.25;1.75;;;;;-146.44;100.00;58906.56;5080387;27;45344;-63
2022/08/01 06:56:00;;;;;;;;;3.25;3.25;;;;;-146.44;100.00;58906.56;5075924;28;45325;-63
2022/08/01 06:58:26;;;;;;;;;2.50;2.50;;;;;-146.44;100.00;58906.56;5074347;28;45341;-65
2022/08/01 07:00:51;;;;;;;;;2.75;2.00;;;;;-146.44;100.00;58906.56;5075854;28;45602;-66
2022/08/01 07:03:16;;;;;;;;;3.00;2.00;;;;;-146.44;100.00;58906.56;5075996;28;45590;-61
2022/08/01 07:05:41;;;;;;;;;2.00;2.00;;;;;-146.44;100.00;58906.56;5076266;27;45653;-65
2022/08/01 07:08:07;;;;;;;;;2.25;2.25;;;;;-146.44;100.00;58906.56;5075842;28;45371;-63
2022/08/01 07:10:32;;;;;;;;;2.00;2.00;;;;;-146.44;100.00;58906.56;5076121;28;45421;-63
2022/08/01 07:12:57;;;;;;;;;3.00;3.00;;;;;-146.44;100.00;58906.56;5075852;28;45605;-64
2022/08/01 07:15:26;;;;;;;;;1.75;1.75;;;;;-146.44;100.00;58906.56;5075587;28;45978;-63
2022/08/01 07:17:52;;;;;;;;;3.00;3.00;;;;;-146.44;100.00;58906.56;5079365;28;45500;-62
2022/08/01 07:20:17;;;;;;;;;3.00;3.00;;;;;-146.44;100.00;58906.56;5079339;28;45501;-65
2022/08/01 07:22:43;;;;;;;;;2.50;2.50;;;;;-146.44;100.00;58906.56;5079899;27;45482;-63
2022/08/01 07:25:09;;;;;;;;;3.00;3.00;;;;;-146.44;100.00;58906.56;5078570;28;45435;-63
2022/08/01 07:27:37;;;;;;;;;3.00;3.00;;;;;-146.44;100.00;58906.56;5079064;28;45487;-63
2022/08/01 07:30:04;;;;;;;;;3.00;3.00;;;;;-146.44;100.00;58906.56;5079486;28;45431;-63
2022/08/01 07:32:30;;;;;;;;;2.50;2.00;;;;;-146.44;100.00;58906.56;5079278;28;45474;-63
2022/08/01 07:34:56;;;;;;;;;3.25;3.25;;;;;-146.44;100.00;58906.56;5078941;28;45811;-63
2022/08/01 07:37:21;;;;;;;;;2.00;2.00;;;;;-146.44;100.00;58906.56;5078986;28;45472;-63
2022/08/01 07:39:46;;;;;;;;;3.25;3.00;;;;;-146.44;100.00;58906.56;5079430;27;45493;-62
2022/08/01 07:42:12;;;;;;;;;4.00;4.00;;;;;-146.44;100.00;58906.56;5094794;27;45541;-63
2022/08/01 07:44:37;;;;;;;;;2.25;2.25;;;;;-146.44;100.00;58906.56;5100057;27;46719;-63
2022/08/01 07:47:04;;;;;;;;;2.25;2.25;;;;;-146.44;100.00;58906.56;5099596;27;45454;-66
2022/08/01 07:49:29;;;;;;;;;6.00;3.00;;;;;-146.44;100.00;58906.56;5081122;27;45424;-63
2022/08/01 07:51:54;;;;;;;;;3.75;3.00;;;;;-146.44;100.00;58906.56;5099736;27;45629;-64
2022/08/01 07:54:20;;;;;;;;;4.25;4.25;;;;;-146.44;100.00;58906.56;5099286;27;46189;-62
2022/08/01 07:56:45;;;;;;;;;6.00;5.00;;;;;-146.44;100.00;58906.56;5098586;27;45484;-63
2022/08/01 07:59:10;;;;;;;;;4.75;4.75;;;;;-146.44;100.00;58906.56;5099328;27;45429;-63
2022/08/01 08:01:36;;;;;;;;;5.00;5.00;;;;;-146.44;100.00;58906.56;5099226;27;45408;-64
2022/08/01 08:04:01;;;;;;;;;4.25;4.25;;;;;-146.44;100.00;58906.56;5098982;27;46596;-62
2022/08/01 08:06:26;;;;;;;;;5.25;3.75;;;;;-146.44;100.00;58906.56;5098981;27;45465;-63
2022/08/01 08:08:53;;;;;;;;;2.50;2.50;;;;;-146.44;100.00;58906.56;5099244;27;45368;-63
2022/08/01 08:11:19;;;;;;;;;5.00;3.00;;;;;-146.44;100.00;58906.56;5099032;27;45636;-64
2022/08/01 08:13:44;;;;;;;;;5.00;5.00;;;;;-146.44;100.00;58906.56;5098095;27;46214;-65
2022/08/01 08:16:09;;;;;;;;;5.50;4.00;;;;;-146.44;100.00;58906.56;5098700;27;45421;-65
2022/08/01 08:18:35;;;;;;;;;4.25;4.25;;;;;-146.44;100.00;58906.56;5098841;27;45445;-64
2022/08/01 08:21:00;;;;;;;;;4.50;4.50;;;;;-146.44;100.00;58906.56;5098907;27;45416;-65
2022/08/01 08:26:11;;;;;;;;;4.20;4.20;;;;;-146.44;100.00;58906.56;5098466;27;45412;-63
2022/08/01 08:28:36;;;;;;;;;4.00;4.00;;;;;-146.44;100.00;58906.56;5097792;27;45476;-65
2022/08/01 08:31:01;;;;;;;;;5.25;5.25;;;;;-146.44;100.00;58906.56;5078491;28;45565;-64
2022/08/01 08:33:27;;;;;;;;;3.25;3.25;;;;;-146.44;100.00;58906.56;5078032;28;45387;-65
2022/08/01 08:35:54;;;;;;;;;5.00;5.00;;;;;-146.44;100.00;58906.56;5078080;28;45500;-65
2022/08/01 08:38:19;;;;;;;;;5.00;4.75;;;;;-146.44;100.00;58906.56;5078280;28;45458;-65
2022/08/01 08:40:44;;;;;;;;;3.00;3.00;;;;;-146.44;100.00;58906.56;5081569;27;45520;-64
2022/08/01 08:43:10;;;;;;;;;3.50;3.50;;;;;-146.44;100.00;58906.56;5099101;27;45860;-62
2022/08/01 08:45:35;;;;;;;;;2.00;2.00;;;;;-146.44;100.00;58906.56;5097770;27;45440;-65
2022/08/01 08:48:01;;;;;;;;;3.50;3.50;;;;;-146.44;100.00;58906.56;5098367;27;45446;-62
2022/08/01 08:50:28;;;;;;;;;2.75;2.75;;;;;-146.44;100.00;58906.56;5098215;27;45425;-62
2022/08/01 08:52:54;;;;;;;;;3.50;2.00;;;;;-146.44;100.00;58906.56;5079733;27;47796;-66
2022/08/01 08:55:20;;;;;;;;;2.60;2.60;;;;;-146.44;100.00;58906.56;5098237;27;45468;-63
2022/08/01 08:57:46;;;;;;;;;1.50;1.50;;;;;-146.44;100.00;58906.56;5080046;27;45389;-62
2022/08/01 09:00:13;;;;;;;;;2.25;2.25;;;;;-146.44;100.00;58906.56;5098422;27;45443;-63
2022/08/01 09:02:43;;;;;;;;;1.75;1.75;;;;;-146.44;100.00;58906.56;5097011;27;46148;-64
2022/08/01 09:05:10;;;;;;;;;2.40;2.40;;;;;-146.44;100.00;58906.56;5097891;27;45541;-61
2022/08/01 09:07:35;;;;;;;;;8.00;7.50;;;;;-146.44;100.00;58906.56;5098238;27;45430;-63
2022/08/01 09:10:02;;;;;;;;;1.25;1.25;;;;;-146.44;100.00;58906.56;5098059;27;45593;-62
2022/08/01 09:12:27;;;;;;;;;3.25;3.25;;;;;-146.44;100.00;58906.56;5097831;27;45465;-63
2022/08/01 09:14:53;;;;;;;;;1.75;1.75;;;;;-146.44;100.00;58906.56;5097741;27;45433;-65
2022/08/01 09:17:19;;;;;;;;;3.50;2.00;;;;;-146.44;100.00;58906.56;5097693;27;45612;-65
2022/08/01 09:19:51;;;;;;;;;2.50;2.50;;;;;-146.44;100.00;58906.56;5096846;27;45417;-63
2022/08/01 09:22:21;;;;;;;;;2.50;2.50;;;;;-146.44;100.00;58906.56;5097843;27;45438;-63
2022/08/01 09:25:18;;;;;;;;;3.20;3.20;;;;;-146.44;100.00;58906.56;5097780;27;45489;-64
2022/08/01 09:27:44;;;;;;;;;4.40;2.80;;;;;-146.44;100.00;58906.56;5051895;27;45489;-64
2022/08/01 09:30:16;;;;;;;;;7.00;6.00;;;;;-146.44;100.00;58906.56;5097674;27;45412;-65
2022/08/01 09:33:02;;;;;;;;;2.75;2.75;;;;;-146.44;100.00;58906.56;5079012;27;46245;-65
2022/08/01 09:35:35;;;;;;;;;2.00;2.00;;;;;-146.44;100.00;58906.56;5096612;27;45409;-63
2022/08/01 09:38:21;;;;;;;;;2.00;2.00;;;;;-146.44;100.00;58906.56;5096101;27;45461;-66
2022/08/01 09:40:46;;;;;;;;;3.00;3.00;;;;;-146.44;100.00;58906.56;5093969;27;45414;-63
2022/08/01 09:43:12;;;;;;;;;1.00;1.00;;;;;-146.44;100.00;58906.56;5077691;28;46385;-64
2022/08/01 09:45:37;;;;;;;;;2.00;2.00;;;;;-146.44;100.00;58906.56;5077167;28;45435;-66
2022/08/01 09:48:08;;;;;;;;;2.75;2.75;;;;;-146.44;100.00;58906.56;5077343;28;45321;-66
2022/08/01 09:50:41;;;;;;;;;4.25;4.25;;;;;-146.44;100.00;58906.56;5076980;28;45387;-63
2022/08/01 09:53:07;;;;;;;;;4.75;4.75;;;;;-146.44;100.00;58906.56;5076967;28;45395;-65
2022/08/01 09:55:33;;;;;;;;;3.00;3.00;;;;;-146.44;100.00;58906.56;5094191;27;45481;-61
2022/08/01 09:58:00;;;;;;;;;3.75;3.00;;;;;-146.44;100.00;58906.56;5097461;27;45414;-64
2022/08/01 10:00:27;;;;;;;;;3.50;3.50;;;;;-146.44;100.00;58906.56;5097505;27;45520;-66
2022/08/01 10:02:52;;;;;;;;;2.75;2.75;;;;;-146.44;100.00;58906.56;5097030;27;45398;-63
2022/08/01 10:05:29;;;;;;;;;3.50;3.50;;;;;-146.44;100.00;58906.56;5097373;27;45396;-62
2022/08/01 10:07:56;;;;;;;;;3.00;2.00;;;;;-146.44;100.00;58906.56;5097386;27;45457;-66
2022/08/01 10:10:22;;;;;;;;;2.50;2.50;;;;;-146.44;100.00;58906.56;5097308;27;45430;-66
2022/08/01 10:12:51;;;;;;;;;3.75;3.75;;;;;-146.44;100.00;58906.56;5095906;27;51365;-62
2022/08/01 10:15:17;;;;;;;;;4.00;4.00;;;;;-146.44;100.00;58906.56;5096533;27;45324;-65
2022/08/01 10:18:05;;;;;;;;;3.25;3.25;;;;;-146.44;100.00;58906.56;5097188;27;45339;-66
2022/08/01 10:20:32;;;;;;;;;2.75;2.50;;;;;-146.44;100.00;58906.56;5096791;27;45469;-64
2022/08/01 10:23:03;;;;;;;;;3.00;3.00;;;;;-146.44;100.00;58906.56;5077276;27;45618;-65
2022/08/01 10:25:36;;;;;;;;;3.00;3.00;;;;;-146.44;100.00;58906.56;5096714;27;45463;-66
2022/08/01 10:28:10;;;;;;;;;3.25;3.25;;;;;-146.44;100.00;58906.56;5078495;27;45565;-65
2022/08/01 10:30:37;;;;;;;;;4.25;3.75;;;;;-146.44;100.00;58906.56;5096541;27;45403;-65
2022/08/01 10:33:03;;;;;;;;;4.00;4.00;;;;;-146.44;100.00;58906.56;5078032;27;46250;-62
2022/08/01 10:35:29;;;;;;;;;3.25;3.25;;;;;-146.44;100.00;58906.56;5096466;27;45445;-63
2022/08/01 10:37:57;;;;;;;;;3.75;3.75;;;;;-146.44;100.00;58906.56;5096454;27;45362;-64
2022/08/01 10:40:23;;;;;;;;;4.00;4.00;;;;;-146.44;100.00;58906.56;5095683;27;45585;-63
2022/08/01 10:42:49;;;;;;;;;3.75;3.75;;;;;-146.44;100.00;58906.56;5075667;28;45523;-63
2022/08/01 10:45:15;;;;;;;;;4.00;4.00;;;;;-146.44;100.00;58906.56;5082898;27;45330;-66
2022/08/01 10:47:55;;;;;;;;;6.00;6.00;;;;;-146.44;100.00;58906.56;5096141;27;45390;-66
2022/08/01 10:50:23;;;;;;;;;4.50;4.50;;;;;-146.44;100.00;58906.56;5096099;27;45427;-64
2022/08/01 10:53:13;;;;;;;;;5.00;5.00;;;;;-146.44;100.00;58906.56;5096215;27;46403;-64
2022/08/01 10:55:49;;;;;;;;;3.60;3.60;;;;;-146.44;100.00;58906.56;5096087;27;45447;-63
2022/08/01 10:58:26;;;;;;;;;3.80;3.80;;;;;-146.44;100.00;58906.56;5096407;27;45398;-65
2022/08/01 11:01:17;;;;;;;;;4.25;3.75;;;;;-146.44;100.00;58906.56;5096115;27;45461;-64
2022/08/01 11:03:57;;;;;;;;;5.00;5.00;;;;;-146.44;100.00;58906.56;5094900;27;46111;-65
2022/08/01 11:06:41;;;;;;;;;3.80;3.40;;;;;-146.44;100.00;58906.56;5095947;27;45441;-62
2022/08/01 11:09:24;;;;;;;;;5.00;5.00;;;;;-146.44;100.00;58906.56;5095875;27;45434;-65
2022/08/01 11:12:03;;;;;;;;;3.75;3.00;;;;;-146.44;100.00;58906.56;5094413;27;45491;-63
2022/08/01 11:14:29;;;;;;;;;4.00;4.00;;;;;-146.44;100.00;58906.56;5096007;27;45458;-64
2022/08/01 11:16:54;;;;;;;;;5.00;5.00;;;;;-146.44;100.00;58906.56;5089623;27;45400;-63
2022/08/01 11:19:21;;;;;;;;;4.00;4.00;;;;;-146.44;100.00;58906.56;5079076;27;45438;-65